Time;durP1;ratioP1;P1;durP2;ratioP2;P2;SDS_P1;SDS_P2;PMS_P1;PMS_P2;Temp;Humidity;BMP_temperature;BMP_pressure;BME280_temperature;BME280_humidity;BME280_pressure;Samples;Min_cycle;Max_cycle;Signal;HPM_P1;HPM_P2
2022/01/10 00:02:07;;;;;;;;;;;;;;;1.02;100.00;101086.25;5026926;28;20012;-80
2022/01/10 00:04:32;;;;;;;;;;;;;;;1.11;100.00;101089.66;5011044;28;20480;-77
2022/01/10 00:06:57;;;;;;;;;;;;;;;1.17;100.00;101089.66;5029426;28;19971;-79
2022/01/10 00:09:23;;;;;;;;;;;;;;;1.21;100.00;101083.63;5032200;28;19925;-79
2022/01/10 00:11:48;;;;;;;;;;;;;;;1.25;100.00;101095.66;5030674;28;19929;-76
2022/01/10 00:14:13;;;;;;;;;;;;;;;1.23;100.00;101102.56;5028958;28;19925;-79
2022/01/10 00:16:39;;;;;;;;;;;;;;;1.21;100.00;101096.56;5009506;28;19975;-77
2022/01/10 00:19:04;;;;;;;;;;;;;;;1.21;100.00;101099.16;5028833;28;19952;-80
2022/01/10 00:21:30;;;;;;;;;;;;;;;1.19;100.00;101103.47;5029585;28;19921;-81
2022/01/10 00:23:55;;;;;;;;;;;;;;;1.16;100.00;101106.91;5038867;28;20382;-83
2022/01/10 00:26:20;;;;;;;;;;;;;;;1.12;100.00;101114.69;5029619;28;19933;-79
2022/01/10 00:28:46;;;;;;;;;;;;;;;1.17;100.00;101118.13;5028936;28;20446;-80
2022/01/10 00:31:11;;;;;;;;;;;;;;;1.21;100.00;101118.13;5028660;28;19993;-78
2022/01/10 00:33:36;;;;;;;;;;;;;;;1.33;100.00;101119.78;5031491;28;19917;-77
2022/01/10 00:36:02;;;;;;;;;;;;;;;1.36;100.00;101131.88;5048313;28;19920;-76
2022/01/10 00:38:28;;;;;;;;;;;;;;;1.43;100.00;101135.31;5048810;28;19956;-77
2022/01/10 00:40:53;;;;;;;;;;;;;;;1.49;100.00;101133.53;5021102;28;19918;-78
2022/01/10 00:43:29;;;;;;;;;;;;;;;1.51;100.00;101136.13;5024880;28;20011;-77
2022/01/10 00:45:55;;;;;;;;;;;;;;;1.59;100.00;101136.94;5009986;28;19944;-75
2022/01/10 00:48:20;;;;;;;;;;;;;;;1.67;100.00;101142.94;5023888;28;20405;-75
2022/01/10 00:50:45;;;;;;;;;;;;;;;1.69;100.00;101154.16;5038908;28;20063;-77
2022/01/10 00:53:10;;;;;;;;;;;;;;;1.77;100.00;101153.25;5029648;28;20560;-76
2022/01/10 00:55:36;;;;;;;;;;;;;;;1.77;100.00;101146.34;5030185;28;19924;-74
2022/01/10 00:58:01;;;;;;;;;;;;;;;1.74;100.00;101153.28;5034776;28;20530;-75
2022/01/10 01:00:26;;;;;;;;;;;;;;;1.72;100.00;101157.59;5042229;28;19921;-76
2022/01/10 01:02:52;;;;;;;;;;;;;;;1.73;100.00;101169.69;5040300;28;20020;-75
2022/01/10 01:05:19;;;;;;;;;;;;;;;1.73;100.00;101169.69;5016245;28;19927;-76
2022/01/10 01:07:44;;;;;;;;;;;;;;;1.74;100.00;101166.22;5031255;28;19924;-75
2022/01/10 01:12:57;;;;;;;;;;;;;;;1.78;100.00;101165.34;5041610;28;19932;-75
2022/01/10 01:15:26;;;;;;;;;;;;;;;1.76;100.00;101173.13;5049198;28;19928;-77
2022/01/10 01:25:57;;;;;;;;;;;;;;;1.65;100.00;101175.78;5009840;28;20531;-75
2022/01/10 01:28:22;;;;;;;;;;;;;;;1.62;100.00;101193.03;5015262;28;19921;-75
2022/01/10 01:30:47;;;;;;;;;;;;;;;1.62;100.00;101193.91;5030792;28;19920;-75
2022/01/10 01:33:15;;;;;;;;;;;;;;;1.57;100.00;101198.22;5016953;28;19963;-74
2022/01/10 01:35:40;;;;;;;;;;;;;;;1.64;100.00;101199.94;5038122;28;19957;-74
2022/01/10 01:38:07;;;;;;;;;;;;;;;1.66;100.00;101205.13;5034141;28;19967;-75
2022/01/10 01:40:33;;;;;;;;;;;;;;;1.58;100.00;101210.31;5048641;28;19920;-76
2022/01/10 01:42:58;;;;;;;;;;;;;;;1.54;100.00;101209.47;5049857;28;19917;-76
2022/01/10 01:45:39;;;;;;;;;;;;;;;1.50;100.00;101217.25;5042877;28;19939;-75
2022/01/10 01:48:05;;;;;;;;;;;;;;;1.48;100.00;101221.56;5041854;28;19924;-74
2022/01/10 01:50:30;;;;;;;;;;;;;;;1.48;100.00;101232.81;5031093;28;20246;-76
2022/01/10 01:52:55;;;;;;;;;;;;;;;1.51;100.00;101231.94;5015237;28;19924;-76
2022/01/10 01:55:21;;;;;;;;;;;;;;;1.52;100.00;101242.28;5041490;28;19963;-77
2022/01/10 01:57:46;;;;;;;;;;;;;;;1.57;100.00;101242.25;5022650;28;20590;-75
2022/01/10 02:00:11;;;;;;;;;;;;;;;1.62;100.00;101242.22;5030845;28;19956;-75
2022/01/10 02:02:37;;;;;;;;;;;;;;;1.67;100.00;101256.91;5026391;28;19977;-75
2022/01/10 02:05:02;;;;;;;;;;;;;;;1.74;100.00;101260.34;5019889;28;19932;-73
2022/01/10 02:07:27;;;;;;;;;;;;;;;1.78;100.00;101258.59;5027110;28;19976;-78
2022/01/10 02:09:53;;;;;;;;;;;;;;;1.83;100.00;101275.00;5045803;28;19987;-79
2022/01/10 02:12:18;;;;;;;;;;;;;;;1.87;100.00;101281.91;5012677;28;19964;-80
2022/01/10 02:14:46;;;;;;;;;;;;;;;1.88;100.00;101280.16;5031704;28;20295;-79
2022/01/10 02:17:13;;;;;;;;;;;;;;;1.91;100.00;101288.78;5029505;28;19921;-80
2022/01/10 02:19:38;;;;;;;;;;;;;;;1.93;100.00;101293.97;5034848;28;19924;-80
2022/01/10 02:22:04;;;;;;;;;;;;;;;1.97;100.00;101288.75;5032669;28;19921;-79
2022/01/10 02:24:29;;;;;;;;;;;;;;;2.00;100.00;101291.31;5017591;28;19921;-82
2022/01/10 02:26:55;;;;;;;;;;;;;;;2.04;100.00;101299.09;4996932;28;19926;-79
2022/01/10 02:29:20;;;;;;;;;;;;;;;2.07;100.00;101296.50;5018741;28;20012;-78
2022/01/10 02:31:46;;;;;;;;;;;;;;;2.08;100.00;101306.00;5010615;28;19944;-81
2022/01/10 02:34:17;;;;;;;;;;;;;;;2.08;100.00;101314.63;5008239;28;19955;-81
2022/01/10 02:36:43;;;;;;;;;;;;;;;2.10;100.00;101317.19;5022841;28;20056;-75
2022/01/10 02:39:10;;;;;;;;;;;;;;;2.12;100.00;101313.75;5018929;28;19921;-77
2022/01/10 02:41:37;;;;;;;;;;;;;;;2.12;100.00;101323.25;5018370;28;20015;-83
2022/01/10 02:44:18;;;;;;;;;;;;;;;2.13;100.00;101323.25;5015219;28;19983;-76
2022/01/10 02:46:44;;;;;;;;;;;;;;;2.12;100.00;101323.25;5026982;28;19921;-77
2022/01/10 02:49:11;;;;;;;;;;;;;;;2.15;100.00;101328.44;5012101;28;20012;-78
2022/01/10 02:51:36;;;;;;;;;;;;;;;2.11;100.00;101337.06;5037980;28;20321;-78
2022/01/10 02:54:02;;;;;;;;;;;;;;;2.17;100.00;101326.69;5034018;28;19924;-78
2022/01/10 02:56:27;;;;;;;;;;;;;;;2.14;100.00;101334.47;5037517;28;19925;-79
2022/01/10 02:58:52;;;;;;;;;;;;;;;2.12;100.00;101342.28;5040621;28;19920;-76
2022/01/10 03:01:17;;;;;;;;;;;;;;;2.12;100.00;101341.38;5033455;28;20343;-79
2022/01/10 03:03:43;;;;;;;;;;;;;;;2.12;100.00;101346.56;5044163;28;19966;-77
2022/01/10 03:06:08;;;;;;;;;;;;;;;2.10;100.00;101348.31;5028286;28;19971;-77
2022/01/10 03:08:34;;;;;;;;;;;;;;;2.11;100.00;101350.03;5030578;28;20305;-75
2022/01/10 03:10:59;;;;;;;;;;;;;;;2.09;100.00;101356.97;5024732;28;19933;-77
2022/01/10 03:13:24;;;;;;;;;;;;;;;2.08;100.00;101350.06;5023723;28;20311;-78
2022/01/10 03:15:50;;;;;;;;;;;;;;;2.09;100.00;101368.19;5045084;28;19932;-78
2022/01/10 03:18:15;;;;;;;;;;;;;;;2.14;100.00;101371.66;5027373;28;19971;-79
2022/01/10 03:20:41;;;;;;;;;;;;;;;2.15;100.00;101381.13;5033463;28;19924;-79
2022/01/10 03:23:07;;;;;;;;;;;;;;;2.22;100.00;101384.56;5027942;28;19924;-78
2022/01/10 03:25:32;;;;;;;;;;;;;;;2.26;100.00;101393.22;5036493;28;19928;-79
2022/01/10 03:27:57;;;;;;;;;;;;;;;2.22;100.00;101381.97;5048061;28;19968;-79
2022/01/10 03:30:23;;;;;;;;;;;;;;;2.21;100.00;101377.63;5040939;28;20539;-78
2022/01/10 03:32:51;;;;;;;;;;;;;;;2.22;100.00;101387.16;5039511;28;19924;-79
2022/01/10 03:35:16;;;;;;;;;;;;;;;2.21;100.00;101398.38;5048447;28;19920;-79
2022/01/10 03:37:42;;;;;;;;;;;;;;;2.26;100.00;101390.63;5032776;28;19956;-78
2022/01/10 03:40:07;;;;;;;;;;;;;;;2.31;100.00;101419.97;5034475;28;20435;-78
2022/01/10 03:42:33;;;;;;;;;;;;;;;2.26;100.00;101422.56;5042156;28;20379;-78
2022/01/10 03:44:58;;;;;;;;;;;;;;;2.30;100.00;101415.66;5006452;28;20159;-78
2022/01/10 03:47:24;;;;;;;;;;;;;;;2.28;100.00;101426.03;5024030;28;19960;-79
2022/01/10 03:49:49;;;;;;;;;;;;;;;2.26;100.00;101424.31;5032128;28;19933;-77
2022/01/10 03:52:14;;;;;;;;;;;;;;;2.26;100.00;101426.91;5027900;28;19925;-78
2022/01/10 03:54:40;;;;;;;;;;;;;;;2.22;100.00;101435.56;5032228;28;19939;-78
2022/01/10 03:57:06;;;;;;;;;;;;;;;2.19;100.00;101431.25;5022496;28;19928;-77
2022/01/10 03:59:31;;;;;;;;;;;;;;;2.19;100.00;101431.25;5040775;28;19921;-79
2022/01/10 04:01:56;;;;;;;;;;;;;;;2.16;100.00;101426.91;5030398;28;19924;-79
2022/01/10 04:04:22;;;;;;;;;;;;;;;2.16;100.00;101436.44;5045848;28;19923;-77
2022/01/10 04:06:47;;;;;;;;;;;;;;;2.20;100.00;101442.47;5028278;28;20310;-77
2022/01/10 04:09:12;;;;;;;;;;;;;;;2.18;100.00;101442.47;5026968;28;19961;-77
2022/01/10 04:11:38;;;;;;;;;;;;;;;2.19;100.00;101451.09;5024302;28;19921;-77
2022/01/10 04:14:03;;;;;;;;;;;;;;;2.19;100.00;101459.75;5005762;28;19918;-77
2022/01/10 04:16:28;;;;;;;;;;;;;;;2.18;100.00;101455.44;5009403;28;19922;-78
2022/01/10 04:18:54;;;;;;;;;;;;;;;2.20;100.00;101464.09;5018304;28;19922;-79
2022/01/10 04:21:19;;;;;;;;;;;;;;;2.22;100.00;101471.84;5024400;28;20390;-78
2022/01/10 04:23:44;;;;;;;;;;;;;;;2.22;100.00;101464.91;5027104;28;19917;-78
2022/01/10 04:26:10;;;;;;;;;;;;;;;2.24;100.00;101470.13;5027470;28;20012;-77
2022/01/10 04:28:35;;;;;;;;;;;;;;;2.20;100.00;101477.06;5028038;28;19967;-77
2022/01/10 04:31:00;;;;;;;;;;;;;;;2.19;100.00;101488.28;5027683;28;19921;-75
2022/01/10 04:33:29;;;;;;;;;;;;;;;2.22;100.00;101496.03;5031201;28;20007;-79
2022/01/10 04:35:55;;;;;;;;;;;;;;;2.22;100.00;101497.78;5028894;28;19921;-78
2022/01/10 04:38:20;;;;;;;;;;;;;;;2.17;100.00;101506.41;5030655;28;19971;-74
2022/01/10 04:40:46;;;;;;;;;;;;;;;2.14;100.00;101521.09;5009380;28;20327;-71
2022/01/10 04:43:11;;;;;;;;;;;;;;;2.15;100.00;101522.84;5022390;28;19918;-73
2022/01/10 04:45:37;;;;;;;;;;;;;;;2.16;100.00;101519.38;5024410;28;19925;-72
2022/01/10 04:48:02;;;;;;;;;;;;;;;2.20;100.00;101523.72;5026882;28;19917;-73
2022/01/10 04:52:53;;;;;;;;;;;;;;;2.22;100.00;101542.69;5026270;28;19917;-72
2022/01/10 04:55:19;;;;;;;;;;;;;;;2.25;100.00;101541.84;5030857;28;19972;-73
2022/01/10 04:57:45;;;;;;;;;;;;;;;2.25;100.00;101547.03;5048133;28;19983;-72
2022/01/10 05:00:12;;;;;;;;;;;;;;;2.27;100.00;101556.53;5046834;28;20481;-72
2022/01/10 05:02:38;;;;;;;;;;;;;;;2.32;100.00;101557.38;5049701;28;20329;-71
2022/01/10 05:05:03;;;;;;;;;;;;;;;2.28;100.00;101570.34;5041709;28;19917;-73
2022/01/10 05:07:29;;;;;;;;;;;;;;;2.27;100.00;101574.69;5030634;28;20737;-73
2022/01/10 05:09:54;;;;;;;;;;;;;;;2.20;100.00;101572.09;5026733;28;19925;-73
2022/01/10 05:12:23;;;;;;;;;;;;;;;2.15;100.00;101575.53;5013988;28;20967;-73
2022/01/10 05:14:48;;;;;;;;;;;;;;;2.16;100.00;101577.25;5008634;28;19925;-73
2022/01/10 05:17:13;;;;;;;;;;;;;;;2.11;100.00;101576.41;5014710;28;20339;-72
2022/01/10 05:19:39;;;;;;;;;;;;;;;2.09;100.00;101590.25;5029614;28;20004;-73
2022/01/10 05:22:04;;;;;;;;;;;;;;;2.04;100.00;101598.00;5027683;28;19987;-74
2022/01/10 05:24:29;;;;;;;;;;;;;;;2.01;100.00;101598.84;5028220;28;19921;-73
2022/01/10 05:26:55;;;;;;;;;;;;;;;2.00;100.00;101602.31;5059924;28;19924;-73
2022/01/10 05:29:20;;;;;;;;;;;;;;;1.97;100.00;101604.91;5047474;28;20075;-72
2022/01/10 05:31:45;;;;;;;;;;;;;;;1.94;100.00;101623.06;5047961;28;20662;-73
2022/01/10 05:34:11;;;;;;;;;;;;;;;1.91;100.00;101620.44;5046864;28;20408;-72
2022/01/10 05:36:36;;;;;;;;;;;;;;;1.87;100.00;101613.53;5047611;28;19944;-72
2022/01/10 05:39:02;;;;;;;;;;;;;;;1.81;100.00;101627.34;5046242;28;19940;-72
2022/01/10 05:41:27;;;;;;;;;;;;;;;1.77;100.00;101624.72;5049968;28;19927;-73
2022/01/10 05:43:55;;;;;;;;;;;;;;;1.71;100.00;101620.38;5016449;28;20378;-72
2022/01/10 05:46:21;;;;;;;;;;;;;;;1.66;100.00;101612.59;5008609;28;19936;-74
2022/01/10 05:48:49;;;;;;;;;;;;;;;1.62;100.00;101625.53;5042595;28;19917;-74
2022/01/10 05:51:15;;;;;;;;;;;;;;;1.59;100.00;101635.91;5026323;28;20019;-79
2022/01/10 05:53:41;;;;;;;;;;;;;;;1.52;100.00;101630.69;5030075;28;20029;-80
2022/01/10 05:56:06;;;;;;;;;;;;;;;1.49;100.00;101635.00;5052971;28;20330;-78
2022/01/10 05:58:32;;;;;;;;;;;;;;;1.43;100.00;101642.78;5050656;28;19928;-79
2022/01/10 06:00:57;;;;;;;;;;;;;;;1.37;100.00;101660.00;5045306;28;20003;-77
2022/01/10 06:03:23;;;;;;;;;;;;;;;1.34;100.00;101661.72;5043271;28;19921;-79
2022/01/10 06:05:48;;;;;;;;;;;;;;;1.27;100.00;101673.75;5018409;28;20363;-78
2022/01/10 06:08:13;;;;;;;;;;;;;;;1.30;100.00;101675.47;5006434;28;19936;-77
2022/01/10 06:10:39;;;;;;;;;;;;;;;1.23;100.00;101684.94;5019025;28;19971;-79
2022/01/10 06:13:04;;;;;;;;;;;;;;;1.26;100.00;101687.53;5027101;28;19963;-78
2022/01/10 06:15:30;;;;;;;;;;;;;;;1.20;100.00;101695.28;5029941;28;19967;-78
2022/01/10 06:17:56;;;;;;;;;;;;;;;1.17;100.00;101703.03;5028035;28;19994;-78
2022/01/10 06:20:21;;;;;;;;;;;;;;;1.13;100.00;101709.91;5007767;28;19925;-78
2022/01/10 06:22:46;;;;;;;;;;;;;;;1.14;100.00;101711.66;5026816;28;19940;-77
2022/01/10 06:25:13;;;;;;;;;;;;;;;1.14;100.00;101721.13;5007498;28;19961;-76
2022/01/10 06:27:39;;;;;;;;;;;;;;;1.16;100.00;101722.84;5016728;28;19925;-77
2022/01/10 06:30:04;;;;;;;;;;;;;;;1.15;100.00;101730.63;5026222;28;19979;-77
2022/01/10 06:32:30;;;;;;;;;;;;;;;1.19;100.00;101729.78;5029793;28;19967;-76
2022/01/10 06:34:57;;;;;;;;;;;;;;;1.21;100.00;101739.28;5026676;28;19924;-77
2022/01/10 06:37:22;;;;;;;;;;;;;;;1.19;100.00;101732.38;5025769;28;20206;-76
2022/01/10 06:39:47;;;;;;;;;;;;;;;1.19;100.00;101743.59;5028448;28;19924;-78
2022/01/10 06:42:13;;;;;;;;;;;;;;;1.16;100.00;101750.47;5025590;28;19921;-77
2022/01/10 06:44:38;;;;;;;;;;;;;;;1.17;100.00;101749.63;5024597;28;20011;-77
2022/01/10 06:47:03;;;;;;;;;;;;;;;1.16;100.00;101758.22;5021511;28;19921;-78
2022/01/10 06:49:29;;;;;;;;;;;;;;;1.18;100.00;101751.34;5025631;28;19925;-77
2022/01/10 06:51:54;;;;;;;;;;;;;;;1.14;100.00;101755.66;5029042;28;19951;-81
2022/01/10 06:54:19;;;;;;;;;;;;;;;1.07;100.00;101765.09;5028393;28;22598;-80
2022/01/10 06:56:45;;;;;;;;;;;;;;;1.03;100.00;101768.50;5045029;28;20610;-79
2022/01/10 06:59:10;;;;;;;;;;;;;;;1.05;100.00;101777.13;5046551;28;19916;-79
2022/01/10 07:01:35;;;;;;;;;;;;;;;0.97;100.00;101790.88;5027964;28;20008;-77
2022/01/10 07:04:01;;;;;;;;;;;;;;;0.94;100.00;101799.47;5025812;28;19925;-77
2022/01/10 07:06:26;;;;;;;;;;;;;;;0.87;100.00;101802.88;5018455;28;19918;-75
2022/01/10 07:08:51;;;;;;;;;;;;;;;0.86;100.00;101806.31;5006958;28;19960;-74
2022/01/10 07:11:17;;;;;;;;;;;;;;;0.86;100.00;101809.75;5020042;28;20382;-78
2022/01/10 07:13:42;;;;;;;;;;;;;;;0.88;100.00;101807.19;5023557;28;19969;-77
2022/01/10 07:16:08;;;;;;;;;;;;;;;1.05;100.00;101820.25;5024129;28;19917;-76
2022/01/10 07:18:33;;;;;;;;;;;;;;;1.05;100.00;101826.31;5007692;28;19921;-77
2022/01/10 07:20:58;;;;;;;;;;;;;;;1.12;100.00;101831.53;5026692;28;19917;-77
2022/01/10 07:23:24;;;;;;;;;;;;;;;1.13;100.00;101833.25;5025078;28;19955;-78
2022/01/10 07:25:49;;;;;;;;;;;;;;;1.16;100.00;101836.75;5026987;28;20027;-78
2022/01/10 07:28:15;;;;;;;;;;;;;;;1.22;100.00;101846.28;5005405;28;19925;-76
2022/01/10 07:30:40;;;;;;;;;;;;;;;1.29;100.00;101852.38;5020345;28;19928;-77
2022/01/10 07:33:06;;;;;;;;;;;;;;;1.36;100.00;101849.84;5024062;28;19921;-74
2022/01/10 07:35:31;;;;;;;;;;;;;;;1.43;100.00;101863.72;5023681;28;19921;-76
2022/01/10 07:37:56;;;;;;;;;;;;;;;1.43;100.00;101862.88;5023805;28;20441;-77
2022/01/10 07:40:22;;;;;;;;;;;;;;;1.38;100.00;101874.03;5016333;28;19931;-77
2022/01/10 07:42:47;;;;;;;;;;;;;;;1.39;100.00;101878.38;5007882;28;19961;-77
2022/01/10 07:45:13;;;;;;;;;;;;;;;1.37;100.00;101885.25;5026389;28;19955;-76
2022/01/10 07:47:38;;;;;;;;;;;;;;;1.43;100.00;101893.94;5029506;28;20313;-77
2022/01/10 07:50:05;;;;;;;;;;;;;;;1.46;100.00;101892.22;5028892;28;20297;-78
2022/01/10 07:52:30;;;;;;;;;;;;;;;1.51;100.00;101900.03;5029120;28;19925;-78
2022/01/10 07:54:55;;;;;;;;;;;;;;;1.56;100.00;101906.09;5030619;28;20593;-78
2022/01/10 07:57:21;;;;;;;;;;;;;;;1.60;100.00;101905.28;5041132;28;19925;-78
2022/01/10 07:59:46;;;;;;;;;;;;;;;1.70;100.00;101909.69;5028798;28;19959;-77
2022/01/10 08:02:11;;;;;;;;;;;;;;;1.74;100.00;101915.75;5026676;28;19943;-79
2022/01/10 08:04:37;;;;;;;;;;;;;;;1.78;100.00;101917.50;5029620;28;19916;-80
2022/01/10 08:07:03;;;;;;;;;;;;;;;1.83;100.00;101925.31;5030950;28;20007;-80
2022/01/10 08:09:28;;;;;;;;;;;;;;;1.90;100.00;101934.00;5023210;28;20397;-81
2022/01/10 08:11:59;;;;;;;;;;;;;;;1.96;100.00;101942.69;5045635;28;19952;-80
2022/01/10 08:14:24;;;;;;;;;;;;;;;2.03;100.00;101940.13;5028923;28;19917;-82
2022/01/10 08:16:50;;;;;;;;;;;;;;;2.11;100.00;101956.59;5029646;28;19987;-81
2022/01/10 08:19:15;;;;;;;;;;;;;;;2.21;100.00;101958.38;5028623;28;19971;-77
2022/01/10 08:21:40;;;;;;;;;;;;;;;2.18;100.00;101963.56;5013141;28;19924;-82
2022/01/10 08:24:06;;;;;;;;;;;;;;;2.21;100.00;101965.31;5029891;28;20005;-79
2022/01/10 08:26:31;;;;;;;;;;;;;;;2.25;100.00;101973.09;5029603;28;19961;-79
2022/01/10 08:28:56;;;;;;;;;;;;;;;2.36;100.00;101982.69;5030320;28;19921;-80
2022/01/10 08:31:22;;;;;;;;;;;;;;;2.41;100.00;101988.78;5021727;28;20127;-79
2022/01/10 08:33:48;;;;;;;;;;;;;;;2.44;100.00;101989.66;5027988;28;20004;-79
2022/01/10 08:36:13;;;;;;;;;;;;;;;2.44;100.00;101989.66;5029923;28;19920;-78
2022/01/10 08:38:39;;;;;;;;;;;;;;;2.47;100.00;101993.97;5025854;28;21663;-78
2022/01/10 08:41:05;;;;;;;;;;;;;;;2.46;100.00;101993.13;5025883;28;19925;-80
2022/01/10 08:43:30;;;;;;;;;;;;;;;2.51;100.00;101990.56;5028483;28;19936;-78
2022/01/10 08:45:56;;;;;;;;;;;;;;;2.62;100.00;101988.88;5028494;28;20016;-79
2022/01/10 08:48:21;;;;;;;;;;;;;;;2.69;100.00;101989.78;5029707;28;19921;-79
2022/01/10 08:50:46;;;;;;;;;;;;;;;2.76;100.00;101990.66;5028934;28;19965;-80
2022/01/10 08:53:12;;;;;;;;;;;;;;;2.86;100.00;101988.97;5023198;28;19971;-80
2022/01/10 08:55:38;;;;;;;;;;;;;;;2.94;100.00;101992.47;5031789;28;19952;-81
2022/01/10 08:58:03;;;;;;;;;;;;;;;2.99;100.00;101985.56;5037054;28;19917;-80
2022/01/10 09:00:29;;;;;;;;;;;;;;;3.07;100.00;101993.41;5023638;28;19927;-80
2022/01/10 09:02:54;;;;;;;;;;;;;;;3.23;100.00;101995.16;5030463;28;20587;-80
2022/01/10 09:05:20;;;;;;;;;;;;;;;3.36;100.00;101995.19;5029091;28;20436;-81
2022/01/10 09:07:46;;;;;;;;;;;;;;;3.44;100.00;101996.06;5029948;28;20438;-81
2022/01/10 09:10:11;;;;;;;;;;;;;;;3.55;100.00;101994.34;5015276;28;19922;-81
2022/01/10 09:12:38;;;;;;;;;;;;;;;3.56;100.00;101995.22;5013226;28;19917;-80
2022/01/10 09:15:04;;;;;;;;;;;;;;;3.59;100.00;102003.00;5044273;28;19921;-81
2022/01/10 09:17:29;;;;;;;;;;;;;;;3.66;100.00;102009.97;5031731;28;19921;-81
2022/01/10 09:19:55;;;;;;;;;;;;;;;3.76;100.00;102020.34;5026224;28;19978;-82
2022/01/10 09:22:20;;;;;;;;;;;;;;;3.69;100.00;102020.34;5026105;28;19931;-80
2022/01/10 09:24:46;;;;;;;;;;;;;;;3.64;100.00;102022.06;5029135;28;19928;-81
2022/01/10 09:27:13;;;;;;;;;;;;;;;3.70;100.00;102026.41;5039926;28;19996;-81
2022/01/10 09:29:40;;;;;;;;;;;;;;;3.67;100.00;102040.28;5011657;28;19905;-82
2022/01/10 09:32:05;;;;;;;;;;;;;;;3.74;100.00;102048.97;5026256;28;19944;-82
2022/01/10 09:34:31;;;;;;;;;;;;;;;3.72;100.00;102051.53;5029610;28;19925;-80
2022/01/10 09:36:56;;;;;;;;;;;;;;;3.72;100.00;102059.34;5011388;28;20362;-81
2022/01/10 09:39:21;;;;;;;;;;;;;;;3.75;100.00;102053.25;5029672;28;19944;-80
2022/01/10 09:41:48;;;;;;;;;;;;;;;3.74;100.00;102058.47;5029008;28;19939;-79
2022/01/10 09:44:13;;;;;;;;;;;;;;;3.75;100.00;102068.00;5028979;28;20297;-80
2022/01/10 09:46:39;;;;;;;;;;;;;;;3.79;100.00;102078.41;5012631;28;19928;-82
2022/01/10 09:49:04;;;;;;;;;;;;;;;3.87;100.00;102079.28;5028250;28;19975;-81
2022/01/10 09:51:30;;;;;;;;;;;;;;;3.90;100.00;102088.84;5030047;28;19921;-81
2022/01/10 09:53:57;;;;;;;;;;;;;;;3.91;99.88;102094.88;5027902;28;19971;-81
2022/01/10 09:56:22;;;;;;;;;;;;;;;4.14;100.00;102100.97;5023596;28;19929;-81
2022/01/10 09:58:48;;;;;;;;;;;;;;;4.14;99.65;102100.97;5011548;28;19923;-80
2022/01/10 10:01:16;;;;;;;;;;;;;;;4.14;98.91;102113.09;5024897;28;20363;-81
2022/01/10 10:03:58;;;;;;;;;;;;;;;4.30;99.34;102114.88;5029088;28;19917;-82
2022/01/10 10:06:24;;;;;;;;;;;;;;;4.32;98.50;102113.13;5025938;28;20433;-83
2022/01/10 10:08:50;;;;;;;;;;;;;;;4.45;98.20;102126.13;5028649;28;20031;-81
2022/01/10 10:11:15;;;;;;;;;;;;;;;4.52;97.30;102125.25;5025528;28;19932;-81
2022/01/10 10:13:57;;;;;;;;;;;;;;;4.77;97.83;102123.47;5031901;28;19917;-82
2022/01/10 10:16:23;;;;;;;;;;;;;;;4.84;97.40;102121.75;5007615;28;19952;-82
2022/01/10 10:18:49;;;;;;;;;;;;;;;4.88;96.70;102125.19;5017893;28;19917;-81
2022/01/10 10:21:16;;;;;;;;;;;;;;;4.85;96.34;102120.88;5025330;28;20691;-81
2022/01/10 10:23:46;;;;;;;;;;;;;;;4.74;96.46;102126.09;5030667;28;19925;-81
2022/01/10 10:26:15;;;;;;;;;;;;;;;4.89;96.65;102129.53;5019835;28;20520;-83
2022/01/10 10:28:40;;;;;;;;;;;;;;;4.95;95.49;102132.16;5033872;28;19921;-81
2022/01/10 10:31:06;;;;;;;;;;;;;;;4.94;95.72;102136.47;5028256;28;20554;-79
2022/01/10 10:33:31;;;;;;;;;;;;;;;4.98;96.02;102141.69;5024780;28;19932;-82
2022/01/10 10:36:11;;;;;;;;;;;;;;;4.88;95.39;102141.72;5023208;28;19932;-81
2022/01/10 10:38:37;;;;;;;;;;;;;;;4.89;96.08;102146.06;5042671;28;20004;-83
2022/01/10 10:41:03;;;;;;;;;;;;;;;4.87;96.63;102160.81;5028160;28;20007;-80
2022/01/10 10:43:30;;;;;;;;;;;;;;;5.05;96.60;102167.72;5027004;28;20394;-81
2022/01/10 10:45:58;;;;;;;;;;;;;;;5.25;95.42;102167.66;5030442;28;20374;-80
2022/01/10 10:48:24;;;;;;;;;;;;;;;5.18;94.72;102165.09;5028087;28;19924;-80
2022/01/10 10:50:49;;;;;;;;;;;;;;;5.38;94.20;102165.88;5029925;28;19925;-80
2022/01/10 10:53:14;;;;;;;;;;;;;;;5.21;94.16;102170.25;5011027;28;19921;-79
2022/01/10 10:55:41;;;;;;;;;;;;;;;5.17;93.95;102174.63;5027581;28;19925;-79
2022/01/10 10:58:07;;;;;;;;;;;;;;;5.13;94.43;102177.25;5010516;28;19921;-80
2022/01/10 11:00:33;;;;;;;;;;;;;;;5.17;94.33;102179.84;5028621;28;19928;-83
2022/01/10 11:02:58;;;;;;;;;;;;;;;5.39;94.70;102180.66;5028472;28;19917;-82
2022/01/10 11:05:24;;;;;;;;;;;;;;;5.60;92.24;102167.53;5009474;28;19924;-80
2022/01/10 11:07:49;;;;;;;;;;;;;;;5.51;92.25;102171.91;5030489;28;19932;-81
2022/01/10 11:10:15;;;;;;;;;;;;;;;5.39;93.49;102185.88;5034718;28;19926;-80
2022/01/10 11:12:44;;;;;;;;;;;;;;;5.33;93.90;102191.09;5044234;28;19929;-81
2022/01/10 11:15:09;;;;;;;;;;;;;;;5.41;93.88;102202.34;5030122;28;20019;-82
2022/01/10 11:17:39;;;;;;;;;;;;;;;5.51;94.18;102199.72;5033662;28;20016;-81
2022/01/10 11:20:19;;;;;;;;;;;;;;;5.52;92.51;102201.44;5040780;28;19921;-80
2022/01/10 11:22:46;;;;;;;;;;;;;;;5.63;92.31;102199.66;5033501;28;19971;-80
2022/01/10 11:25:27;;;;;;;;;;;;;;;5.54;92.63;102205.78;5031262;28;20002;-79
2022/01/10 11:27:53;;;;;;;;;;;;;;;5.58;92.52;102201.44;5033053;28;19986;-80
2022/01/10 11:30:34;;;;;;;;;;;;;;;5.58;93.09;102206.66;5031916;28;19928;-82
2022/01/10 11:35:42;;;;;;;;;;;;;;;5.83;92.71;102209.16;5030763;28;19972;-79
2022/01/10 11:38:23;;;;;;;;;;;;;;;5.92;91.75;102211.72;5014359;28;19921;-80
2022/01/10 11:40:49;;;;;;;;;;;;;;;6.15;89.71;102208.13;5032089;28;19917;-81
2022/01/10 11:43:30;;;;;;;;;;;;;;;6.29;89.44;102206.28;5031962;28;19921;-81
2022/01/10 11:46:10;;;;;;;;;;;;;;;6.17;90.18;102212.47;5013712;28;19925;-80
2022/01/10 11:48:51;;;;;;;;;;;;;;;6.19;90.35;102215.94;5014026;28;19917;-81
2022/01/10 11:51:34;;;;;;;;;;;;;;;5.83;91.28;102232.63;5030881;28;19928;-81
2022/01/10 11:54:07;;;;;;;;;;;;;;;5.79;93.12;102236.09;5029824;28;21771;-80
2022/01/10 11:56:35;;;;;;;;;;;;;;;5.97;92.04;102241.22;5048739;28;19921;-77
2022/01/10 11:59:15;;;;;;;;;;;;;;;6.06;92.90;102249.94;5032130;28;20393;-81
2022/01/10 12:01:42;;;;;;;;;;;;;;;6.24;90.93;102242.00;5025399;28;19994;-81
2022/01/10 12:04:08;;;;;;;;;;;;;;;6.18;90.25;102239.41;5019289;28;19917;-80
2022/01/10 12:06:33;;;;;;;;;;;;;;;6.06;91.21;102244.72;5042246;28;19924;-80
2022/01/10 12:08:59;;;;;;;;;;;;;;;6.15;91.26;102249.88;5031998;28;19995;-81
2022/01/10 12:11:25;;;;;;;;;;;;;;;6.38;90.57;102241.91;5028221;28;19947;-80
2022/01/10 12:13:52;;;;;;;;;;;;;;;6.46;89.49;102240.09;5062976;28;19933;-80
2022/01/10 12:16:17;;;;;;;;;;;;;;;6.15;90.33;102245.53;5030577;28;19968;-80
2022/01/10 12:18:43;;;;;;;;;;;;;;;6.14;90.35;102250.75;5030062;28;19917;-80
2022/01/10 12:21:08;;;;;;;;;;;;;;;6.21;91.64;102264.66;5030169;28;19917;-79
2022/01/10 12:23:33;;;;;;;;;;;;;;;6.05;91.61;102267.31;5026696;28;19990;-79
2022/01/10 12:25:59;;;;;;;;;;;;;;;6.11;92.09;102275.13;5020508;28;19932;-79
2022/01/10 12:28:27;;;;;;;;;;;;;;;6.16;91.51;102285.56;5032421;28;20058;-80
2022/01/10 12:30:52;;;;;;;;;;;;;;;6.29;91.96;102286.34;5050773;28;20601;-80
2022/01/10 12:33:24;;;;;;;;;;;;;;;6.37;91.54;102278.47;5029325;28;19923;-78
2022/01/10 12:35:52;;;;;;;;;;;;;;;6.54;89.82;102268.78;5032475;28;19917;-78
2022/01/10 12:38:32;;;;;;;;;;;;;;;6.49;90.06;102275.78;5011941;28;19975;-82
2022/01/10 12:40:58;;;;;;;;;;;;;;;6.51;91.40;102287.06;5010109;28;19925;-78
2022/01/10 12:43:23;;;;;;;;;;;;;;;6.44;91.50;102291.50;5026413;28;19932;-78
2022/01/10 12:45:49;;;;;;;;;;;;;;;6.40;91.39;102291.50;5018440;28;19921;-80
2022/01/10 12:48:14;;;;;;;;;;;;;;;6.29;91.76;102297.63;5027272;28;19928;-79
2022/01/10 12:50:41;;;;;;;;;;;;;;;6.22;92.17;102303.78;5012471;28;19998;-77